Terminal Aerodrome Forecast
Issued by NWS Blacksburg, VA

Current Version | Previous Version | Graphics & Text | Print | Product List | Glossary On
Versions: 1 2 3 4 5 6 7 8 9 10 11 12 13 14 15 16 17 18 19 20 21 22 23 24 25 26 27 28 29 30 31 32
000
FTUS41 KRNK 211138
TAFBLF
TAF
KBLF 211138Z 2112/2212 14005KT P6SM SCT010
      TEMPO 2112/2114 OVC010
     FM211400 15006KT P6SM BKN015
     FM211600 15007KT P6SM BKN030
     FM211800 15006KT P6SM VCTS BKN040CB
     FM220100 14005KT P6SM VCSH BKN035 OVC080
     FM220400 14004KT P6SM OVC012=

USA.gov is the U.S. government's official web portal to all federal, state and local government web resources and services.